• Join FlightAware (Why Join?)
  • Login
  • US Flag 
 
11:57AM EST


 

Airport Tracker/Info


-or-


 

Live Flight TrackerFlight Track Log ✈ AAY876 ✈ 21-Jul-2014 ✈ KPIE - KRFD

Flight Track Log - Related Links

Times and Time Zones

All times are in EDT time to prevent confusion due to time zone crossing. See the AAY876 flight status page for this flight to view local times or setup timezone preferences in your user account.

Time Position Orientation Groundspeed Altitude Reporting Facility
EDT Latitude Longitude Course Direction KTS MPH feet Rate Location/Type
04:22PM 28.5102 -83.0614 330° Northwest  Level FlightAware Approximate
04:23PM 28.6114 -83.1268 330° Northwest  Level FlightAware Approximate
04:24PM 28.7126 -83.1924 330° Northwest  Level FlightAware Approximate
04:25PM 28.8141 -83.2574 331° Northwest  Level FlightAware Approximate
04:26PM 28.9157 -83.3221 331° Northwest  Level FlightAware Approximate
04:27PM 29.0186 -83.3844 332° Northwest  Level FlightAware Approximate
04:27PM 27.9500 -82.6833 41° Northeast 160 184 1,700  Level Tampa TRACON
04:28PM 29.1216 -83.4463 332° Northwest  Level FlightAware Approximate
04:28PM 28.0000 -82.6667 16° North 259 298 2,800  Level Tampa TRACON
04:29PM 29.2237 -83.5102 330° Northwest  Level FlightAware Approximate
04:30PM 29.3244 -83.5773 330° Northwest  Level FlightAware Approximate
04:30PM 28.1228 -82.7442 331° Northwest 294 338 8,000  Level Jacksonville Center
04:31PM 29.4269 -83.6385 336° Northwest  Level FlightAware Approximate
04:31PM 28.1833 -82.7481 357° North 296 341 10,000  Level Miami Center
04:32PM 29.5289 -83.7026 330° Northwest  Level FlightAware Approximate
04:32PM 28.2897 -82.7492 359° North 318 366 11,700  Level Miami Center
04:33PM 28.3833 -82.7969 336° Northwest 362 417 13,800 1,920 Climbing Miami Center
04:34PM 28.4797 -82.8572 331° Northwest 350 403 15,800 1,800 Climbing Jacksonville Center
04:35PM 28.5797 -82.9092 335° Northwest 375 432 17,600 1,740 Climbing Jacksonville Center
04:36PM 28.6778 -82.9658 333° Northwest 385 443 19,300 1,620 Climbing Jacksonville Center
04:37PM 28.7822 -83.0158 337° Northwest 395 455 20,900 1,380 Climbing Jacksonville Center
04:38PM 28.9011 -83.0728 337° Northwest 410 472 22,100 1,200 Climbing Jacksonville Center
04:39PM 29.0158 -83.1228 339° North 417 480 23,300 1,200 Climbing Jacksonville Center
04:40PM 29.1283 -83.1778 337° Northwest 428 493 24,600 1,020 Climbing Jacksonville Center
04:41PM 29.2453 -83.2306 339° North 439 505 25,400 840 Climbing Jacksonville Center
04:42PM 29.3619 -83.2858 338° Northwest 445 512 26,300 780 Climbing Jacksonville Center
04:43PM 29.4808 -83.3411 338° Northwest 450 518 27,000 600 Climbing Jacksonville Center
04:44PM 29.5911 -83.4181 329° Northwest 455 524 27,600 720 Climbing Jacksonville Center
04:50PM 30.1998 -83.9111 324° Northwest 478 550 32,000 660 Climbing FlightAware ADS-B (KTLH)
04:50PM 30.2619 -83.9623 325° Northwest 473 544 32,000  Level FlightAware ADS-B (KTLH)
04:51PM 30.3161 -84.0070 324° Northwest 472 543 32,000  Level FlightAware ADS-B (KTLH)
04:51PM 30.3848 -84.0637 324° Northwest 472 543 32,000  Level FlightAware ADS-B (KTLH)
04:52PM 30.4399 -84.1092 324° Northwest 472 543 32,000  Level FlightAware ADS-B (KTLH)
04:52PM 30.4942 -84.1541 324° Northwest 471 542 32,000  Level FlightAware ADS-B (KTLH)
04:53PM 30.5477 -84.1984 324° Northwest 469 540 32,000 360 Level FlightAware ADS-B (KTLH)
04:53PM 30.5970 -84.2394 324° Northwest 471 542 32,400 780 Climbing FlightAware ADS-B (KTLH)
04:54PM 30.6696 -84.2998 324° Northwest 472 543 32,900 720 Climbing FlightAware ADS-B (KTLH)
04:55PM 30.7258 -84.3466 324° Northwest 473 544 33,300 900 Climbing FlightAware ADS-B (KTLH)
04:55PM 30.7966 -84.4055 324° Northwest 469 540 34,000 420 Climbing FlightAware ADS-B (KTLH)
04:56PM 30.8391 -84.4409 324° Northwest 468 539 34,000  Level FlightAware ADS-B (KTLH)
04:57PM 30.9436 -84.5284 324° Northwest 466 536 34,000  Level FlightAware ADS-B (KTLH)
04:57PM 30.9892 -84.5665 324° Northwest 466 536 34,000 360 Level FlightAware ADS-B (KTLH)
04:59PM 31.0361 -84.6059 324° Northwest 468 539 34,800 600 Climbing FlightAware ADS-B (KTLH)
04:59PM 31.1844 -84.7333 324° Northwest 474 545 35,100 540 Climbing Jacksonville Center
05:00PM 31.2875 -84.8228 323° Northwest 474 545 35,700 300 Climbing Jacksonville Center
05:02PM 31.4822 -84.9886 324° Northwest 478 550 36,000 60 Climbing Atlanta Center
05:03PM 31.5858 -85.0775 324° Northwest 473 544 36,000  Level Atlanta Center
05:04PM 31.7058 -85.1717 326° Northwest 473 544 36,000  Level Atlanta Center
05:05PM 31.8136 -85.2681 323° Northwest 475 547 36,000  Level Atlanta Center
05:06PM 31.9211 -85.3553 325° Northwest 475 547 36,000  Level Atlanta Center
05:07PM 32.0286 -85.4500 323° Northwest 475 547 36,000  Level Atlanta Center
05:08PM 32.1361 -85.5425 324° Northwest 475 547 36,000  Level Atlanta Center
05:09PM 32.2456 -85.6350 324° Northwest 480 552 36,000  Level Atlanta Center
05:10PM 32.3528 -85.7281 324° Northwest 480 552 36,000  Level Atlanta Center
05:11PM 32.4456 -85.8208 320° Northwest 480 552 36,000  Level Atlanta Center
05:16PM 33.0291 -86.3256 323° Northwest 481 554 36,000  Level FlightAware ADS-B (KMDQ)
05:17PM 33.0784 -86.3693 325° Northwest 481 554 36,000  Level FlightAware ADS-B (KMDQ)
05:18PM 33.2039 -86.4265 348° North 492 566 36,000  Level FlightAware ADS-B (KMDQ)
05:19PM 33.3888 -86.4757 347° North 486 559 36,000  Level FlightAware ADS-B (KMDQ)
05:20PM 33.4840 -86.5013 347° North 485 558 36,000  Level FlightAware ADS-B (KMDQ)
05:20PM 33.5710 -86.5245 347° North 482 555 36,000  Level FlightAware ADS-B (KMDQ)
05:21PM 33.6584 -86.5479 347° North 480 552 36,000  Level FlightAware ADS-B (KMDQ)
05:22PM 33.7875 -86.5826 347° North 478 550 36,000  Level FlightAware ADS-B (KMDQ)
05:23PM 33.8750 -86.6062 347° North 476 548 36,000  Level FlightAware ADS-B (KMDQ)
05:23PM 33.9568 -86.6285 347° North 473 544 36,000  Level FlightAware ADS-B (KMDQ)
05:24PM 34.0231 -86.6465 347° North 468 539 36,000  Level FlightAware ADS-B (KMDQ)
05:25PM 34.1280 -86.6748 347° North 467 537 36,000  Level FlightAware ADS-B (KMDQ)
05:25PM 34.2012 -86.6948 347° North 465 535 36,000  Level FlightAware ADS-B (KMDQ)
05:26PM 34.2915 -86.7195 347° North 465 535 36,000  Level FlightAware ADS-B (KMDQ)
05:27PM 34.3743 -86.7423 347° North 461 531 36,000 60 Level FlightAware ADS-B (KMDQ)
05:27PM 34.4567 -86.7649 347° North 455 524 36,100  Climbing FlightAware ADS-B (KMDQ)
05:28PM 34.5266 -86.7841 347° North 453 521 36,000 -120 Descending FlightAware ADS-B (KMDQ)
05:29PM 34.6284 -86.8122 347° North 454 522 36,000  Level FlightAware ADS-B (KMDQ)
05:30PM 34.7510 -86.8461 347° North 457 526 36,000  Level FlightAware ADS-B (KMDQ)
05:30PM 34.8335 -86.8688 347° North 459 528 36,000 60 Level FlightAware ADS-B (KMDQ)
05:31PM 34.9050 -86.8887 347° North 457 526 36,100 60 Climbing FlightAware ADS-B (KMDQ)
05:32PM 34.9996 -86.9151 347° North 454 522 36,100  Level FlightAware ADS-B (KMDQ)
05:32PM 35.0799 -86.9374 347° North 449 517 36,100 -120 Level FlightAware ADS-B (KMDQ)
05:33PM 35.1534 -86.9580 347° North 446 513 36,000 -120 Descending FlightAware ADS-B (KMDQ)
05:34PM 35.2321 -86.9800 347° North 447 514 36,000  Level FlightAware ADS-B (KMDQ)
05:34PM 35.3180 -87.0041 347° North 443 510 36,000  Level FlightAware ADS-B (KMDQ)
05:35PM 35.4017 -87.0275 347° North 439 505 36,000  Level FlightAware ADS-B (KMDQ)
05:36PM 35.4762 -87.0484 347° North 436 502 36,000  Level FlightAware ADS-B (KMDQ)
05:36PM 35.5521 -87.0699 347° North 434 499 36,000  Level FlightAware ADS-B (KMDQ)
05:37PM 35.6691 -87.1030 347° North 434 499 36,000  Level FlightAware ADS-B (KMDQ)
05:38PM 35.7961 -87.1406 347° North 437 503 36,000  Level Memphis Center
05:39PM 35.9144 -87.1750 347° North 435 501 36,000  Level Memphis Center
05:40PM 36.0333 -87.2083 347° North 434 499 36,000  Level Memphis Center
05:41PM 36.1531 -87.2439 347° North 434 499 36,000  Level Memphis Center
05:43PM 36.2739 -87.2769 348° North 434 499 36,000  Level Memphis Center
05:44PM 36.3936 -87.3114 347° North 434 499 36,000  Level Memphis Center
05:45PM 36.5117 -87.3442 347° North 432 497 36,000  Level Memphis Center
05:51PM 37.2393 -87.5568 347° North 434 499 36,000  Level FlightAware ADS-B
05:52PM 37.3592 -87.5917 347° North 431 496 36,000  Level Memphis Center
05:53PM 37.4786 -87.6283 346° North 432 497 36,000  Level Memphis Center
05:54PM 37.6194 -87.6694 347° North 436 502 36,000  Level Memphis Center
05:55PM 37.7406 -87.7061 347° North 438 504 36,000  Level Memphis Center
05:56PM 37.8614 -87.7428 347° North 441 507 36,000  Level Memphis Center
05:57PM 37.9925 -87.7733 350° North 441 507 36,000  Level Indianapolis Center
05:58PM 38.1156 -87.7906 354° North 441 507 36,000  Level Indianapolis Center
05:59PM 38.2386 -87.8078 354° North 441 507 36,000  Level Indianapolis Center
06:00PM 38.3628 -87.8269 353° North 441 507 36,000  Level Indianapolis Center
06:01PM 38.5086 -87.8481 354° North 441 507 36,000  Level Indianapolis Center
06:02PM 38.6308 -87.8667 353° North 441 507 36,000  Level Indianapolis Center
06:03PM 38.7536 -87.8833 354° North 440 506 36,000  Level Indianapolis Center
06:04PM 38.8758 -87.9022 353° North 440 506 36,000  Level Indianapolis Center
06:05PM 38.9983 -87.9211 353° North 440 506 36,000  Level Indianapolis Center
06:06PM 39.1208 -87.9389 354° North 440 506 36,000  Level Indianapolis Center
06:07PM 39.2444 -87.9564 354° North 441 507 36,000  Level Indianapolis Center
06:13PM 40.0002 -88.0734 353° North 448 516 36,000  Level FlightAware ADS-B (KMDW)
06:14PM 40.1243 -88.0960 345° North 451 519 36,000  Level FlightAware ADS-B (KMDW)
06:15PM 40.1891 -88.1262 340° North 449 517 36,000  Level FlightAware ADS-B (KMDW)
06:16PM 40.2595 -88.1594 341° North 449 517 36,000  Level FlightAware ADS-B (KMDW)
06:16PM 40.3629 -88.2076 353° North 446 513 36,000 -1,440 Level FlightAware ADS-B (KPWK)
06:18PM 40.5079 -88.2760 340° North 446 513 33,100 -2,340 Descending FlightAware ADS-B (KMDW)
06:19PM 40.5398 -88.2911 340° North 426 490 30,200 -2,280 Descending FlightAware ADS-B (KPWK)
06:20PM 40.6851 -88.3604 340° North 413 475 28,200 -2,220 Descending FlightAware ADS-B (KPWK)
06:21PM 40.8369 -88.4331 340° North 400 460 26,500 -2,160 Descending FlightAware ADS-B (KMDW)
06:21PM 40.8987 -88.4627 340° North 389 448 25,200 -2,040 Descending FlightAware ADS-B (KMDW)
06:22PM 40.9540 -88.4892 340° North 386 444 24,100 -960 Descending FlightAware ADS-B (KMDW)
06:23PM 41.0268 -88.5242 340° North 391 450 24,000 -600 Descending FlightAware ADS-B (KPWK)
06:23PM 41.0959 -88.5574 340° North 378 435 23,300 -2,100 Descending FlightAware ADS-B (KMDW)
06:24PM 41.1671 -88.5918 340° North 392 451 21,000 -2,940 Descending FlightAware ADS-B (KMDW)
06:25PM 41.2502 -88.6321 340° North 395 455 18,200 -2,580 Descending FlightAware ADS-B (KMDW)
06:25PM 41.3162 -88.6642 340° North 384 442 17,100 -2,580 Descending FlightAware ADS-B (KMDW)
06:26PM 41.2682 -88.6408 340° North 382 440 15,000 -2,400 Descending FlightAware ADS-B (KPWK)
06:27PM 41.4271 -88.7184 340° North 370 426 13,500 -1,320 Descending FlightAware ADS-B (KMDW)
06:28PM 41.5451 -88.7761 340° North 336 387 12,900 -420 Descending FlightAware ADS-B (KPWK)
06:28PM 41.6055 -88.8058 340° North 317 365 12,900  Level FlightAware ADS-B (KPWK)
06:29PM 41.6512 -88.8280 340° North 312 359 12,900  Level FlightAware ADS-B (KMDW)
06:30PM 41.7029 -88.8533 340° North 300 345 12,900 -1,320 Level FlightAware ADS-B (KMDW)
06:30PM 41.7700 -88.8863 340° North 316 364 10,900 -2,400 Descending FlightAware ADS-B (KMDW)
06:31PM 41.7994 -88.9007 340° North 313 360 9,700 -1,800 Descending FlightAware ADS-B (KPWK)
06:32PM 41.8668 -88.9339 340° North 295 339 8,700 -1,680 Descending FlightAware ADS-B (KMDW)
06:32PM 41.8964 -88.9486 340° North 288 331 8,200 -1,500 Descending FlightAware ADS-B (KMDW)
06:32PM 41.9182 -88.9595 340° North 284 327 7,700 -1,680 Descending FlightAware ADS-B (KMDW)
06:33PM 41.9725 -88.9866 340° North 287 330 6,500 -1,680 Descending FlightAware ADS-B (KMDW)
06:33PM 41.9987 -88.9995 340° North 285 328 5,900 -1,680 Descending FlightAware ADS-B (KMDW)
06:34PM 42.0005 -89.0004 340° North 285 328 5,000 -1,740 Descending FlightAware ADS-B (KMDW)
06:35PM 42.0831 -89.0419 340° North 284 327 3,900 -1,380 Descending Chicago Center
06:36PM 42.1422 -89.0203 15° North 285 328 2,800 -720 Descending Chicago Center
06:37PM 42.2172 -88.9778 23° Northeast 257 296 2,500 -300 Descending Chicago Center
06:38PM 42.2339 -89.0333 292° West 221 254 2,200 -300 Descending Chicago Center